Terminal Aerodrome Forecast
Issued by NWS Missoula, MT

Home | Current Version | Previous Version | Text Only | Print | Product List | Glossary On
Versions: 1 2 3 4 5 6 7 8 9 10 11 12 13 14 15
000
FTUS45 KMSO 260532
TAFMSO
TAF
KMSO 260532Z 2606/2706 12010KT P6SM SCT090
     FM260800 24010KT P6SM VCSH BKN080
     FM261400 28010KT P6SM OVC090
     FM261800 30018G28KT P6SM VCSH OVC080=

USA.gov is the U.S. government's official web portal to all federal, state and local government web resources and services.